createdAt,value
2023-03-27T00:00:10.902Z,2.00
2023-03-27T00:05:12.490Z,2.37
2023-03-27T00:10:15.125Z,1.83
2023-03-27T00:15:19.538Z,2.13
2023-03-27T00:20:23.059Z,2.43
2023-03-27T00:25:26.807Z,2.20
2023-03-27T00:30:30.891Z,2.03
2023-03-27T00:35:32.552Z,1.90
2023-03-27T00:40:34.268Z,2.67
2023-03-27T00:45:37.804Z,1.80
2023-03-27T00:50:42.262Z,2.10
2023-03-27T00:55:47.157Z,2.30
2023-03-27T01:00:51.827Z,2.60
2023-03-27T01:05:54.079Z,2.43
2023-03-27T01:11:01.515Z,2.30
2023-03-27T01:16:11.754Z,2.40
2023-03-27T01:21:34.343Z,2.13
2023-03-27T01:26:51.682Z,2.50
2023-03-27T01:32:24.380Z,2.43
2023-03-27T01:37:56.512Z,2.17
2023-03-27T01:43:03.962Z,2.17
2023-03-27T01:48:12.006Z,2.20
2023-03-27T01:53:32.579Z,2.13
2023-03-27T01:58:40.284Z,2.13
2023-03-27T02:03:44.881Z,2.47
2023-03-27T02:08:55.367Z,2.33
2023-03-27T02:14:03.929Z,2.30
2023-03-27T02:19:12.348Z,2.20
2023-03-27T02:24:17.797Z,2.30
2023-03-27T02:29:29.165Z,2.40
2023-03-27T02:34:40.365Z,2.30
2023-03-27T02:39:55.848Z,2.13
2023-03-27T02:45:14.027Z,2.80
2023-03-27T02:50:37.335Z,2.30
2023-03-27T02:55:51.949Z,2.10
2023-03-27T03:00:54.086Z,2.33
2023-03-27T03:06:15.102Z,2.70
2023-03-27T03:11:17.145Z,3.03
2023-03-27T03:16:19.056Z,2.50
2023-03-27T03:21:21.287Z,2.57
2023-03-27T03:26:22.913Z,2.37
2023-03-27T03:31:24.603Z,2.73
2023-03-27T03:36:30.838Z,2.50
2023-03-27T03:41:32.711Z,2.50
2023-03-27T03:46:36.872Z,2.70
2023-03-27T03:51:38.667Z,2.50
2023-03-27T03:56:43.279Z,2.30
2023-03-27T04:01:46.018Z,2.60
2023-03-27T04:06:47.654Z,2.90
2023-03-27T04:11:49.373Z,2.40
2023-03-27T04:17:18.028Z,2.30
2023-03-27T04:22:22.877Z,2.70
2023-03-27T04:27:30.390Z,2.37
2023-03-27T04:32:46.705Z,2.50
2023-03-27T04:38:15.867Z,2.30
2023-03-27T04:43:21.902Z,2.50
2023-03-27T04:48:24.422Z,2.50
2023-03-27T04:53:30.983Z,2.67
2023-03-27T04:58:35.977Z,2.80
2023-03-27T05:03:43.893Z,2.77
2023-03-27T05:08:52.718Z,3.00
2023-03-27T05:13:59.946Z,2.50
2023-03-27T05:19:03.960Z,2.60
2023-03-27T05:24:15.438Z,2.73
2023-03-27T05:29:18.898Z,2.70
2023-03-27T05:34:23.211Z,2.40
2023-03-27T05:39:28.626Z,2.70
2023-03-27T05:44:31.006Z,2.90
2023-03-27T05:49:34.151Z,3.00
2023-03-27T05:54:44.124Z,2.53
2023-03-27T05:59:46.017Z,2.57
2023-03-27T06:04:59.148Z,2.80
2023-03-27T06:10:07.672Z,2.40
2023-03-27T06:15:18.560Z,3.00
2023-03-27T06:20:39.258Z,2.80
2023-03-27T06:25:40.858Z,2.30
2023-03-27T06:30:46.497Z,2.40
2023-03-27T06:36:05.153Z,2.60
2023-03-27T06:41:10.380Z,2.70
2023-03-27T06:46:38.911Z,2.33
2023-03-27T06:51:53.282Z,2.20
2023-03-27T06:56:56.672Z,2.00
2023-03-27T07:07:21.706Z,2.30
2023-03-27T07:12:23.370Z,2.37
2023-03-27T07:17:26.506Z,2.50
2023-03-27T07:22:33.602Z,2.70
2023-03-27T07:27:41.618Z,2.47
2023-03-27T07:32:44.715Z,2.67
2023-03-27T07:37:47.683Z,2.20
2023-03-27T07:43:15.305Z,2.60
2023-03-27T07:48:18.835Z,2.63
2023-03-27T07:53:32.856Z,2.40
2023-03-27T07:58:40.891Z,2.30
2023-03-27T08:03:42.658Z,2.10
2023-03-27T08:08:45.618Z,1.90
2023-03-27T08:13:47.443Z,2.10
2023-03-27T08:18:49.711Z,1.73
2023-03-27T08:23:51.907Z,1.60
2023-03-27T08:29:16.420Z,1.73
2023-03-27T08:34:22.390Z,1.50
2023-03-27T08:39:26.302Z,1.73
2023-03-27T08:44:35.438Z,1.37
2023-03-27T08:49:51.461Z,1.40
2023-03-27T08:55:34.382Z,1.23
2023-03-27T09:00:45.245Z,1.50
2023-03-27T09:06:09.775Z,1.33
2023-03-27T09:11:22.218Z,1.40
2023-03-27T09:16:32.959Z,1.50
2023-03-27T09:21:52.616Z,1.30
2023-03-27T09:27:20.025Z,1.60
2023-03-27T09:32:33.938Z,1.37
2023-03-27T09:37:36.987Z,1.10
2023-03-27T09:42:41.190Z,1.57
2023-03-27T09:47:49.237Z,1.33
2023-03-27T09:52:52.315Z,1.40
2023-03-27T09:58:15.328Z,1.40
2023-03-27T10:03:19.358Z,1.40
2023-03-27T10:08:44.233Z,1.53
2023-03-27T10:13:53.499Z,1.60
2023-03-27T10:18:59.273Z,1.60
2023-03-27T10:24:10.876Z,1.60
2023-03-27T10:29:29.561Z,1.77
2023-03-27T10:34:40.459Z,1.60
2023-03-27T10:40:07.494Z,1.53
2023-03-27T10:45:21.172Z,1.60
2023-03-27T10:50:33.521Z,1.70
2023-03-27T10:55:53.825Z,1.70
2023-03-27T11:01:03.966Z,1.73
2023-03-27T11:06:12.820Z,1.70
2023-03-27T11:11:24.399Z,1.50
2023-03-27T11:16:39.915Z,1.70
2023-03-27T11:22:11.698Z,1.50
2023-03-27T11:27:28.720Z,1.63
2023-03-27T11:32:37.784Z,1.63
2023-03-27T11:37:51.977Z,1.50
2023-03-27T11:42:55.459Z,1.63
2023-03-27T11:48:51.583Z,1.23
2023-03-27T11:54:39.439Z,1.30
2023-03-27T11:59:51.223Z,1.80
2023-03-27T12:05:05.010Z,1.20
2023-03-27T12:10:29.216Z,1.00
2023-03-27T12:15:47.015Z,1.50
2023-03-27T12:21:19.690Z,2.17
2023-03-27T12:26:33.415Z,1.30
2023-03-27T12:31:51.492Z,1.30
2023-03-27T12:36:53.935Z,1.67
2023-03-27T12:42:00.468Z,1.63
2023-03-27T12:47:14.421Z,1.60
2023-03-27T12:52:18.652Z,1.70
2023-03-27T12:57:43.428Z,1.70
2023-03-27T13:03:13.937Z,1.90
2023-03-27T13:08:32.120Z,2.20
2023-03-27T13:13:52.206Z,1.67
2023-03-27T13:19:34.727Z,1.50
2023-03-27T13:25:24.366Z,1.40
2023-03-27T13:30:43.672Z,1.57
2023-03-27T13:36:19.139Z,1.13
2023-03-27T13:41:45.306Z,1.30
2023-03-27T13:47:28.293Z,1.37
2023-03-27T13:52:58.325Z,1.10
2023-03-27T13:58:44.618Z,1.30
2023-03-27T14:04:04.133Z,1.20
2023-03-27T14:09:14.038Z,1.50
2023-03-27T14:15:09.956Z,1.40
2023-03-27T14:20:22.190Z,1.30
2023-03-27T14:25:34.181Z,1.70
2023-03-27T14:30:55.044Z,1.70
2023-03-27T14:36:25.851Z,1.50
2023-03-27T14:41:28.627Z,1.60
2023-03-27T14:46:34.802Z,1.50
2023-03-27T14:51:47.375Z,1.50
2023-03-27T14:57:06.380Z,1.93
2023-03-27T15:02:32.646Z,1.70
2023-03-27T15:07:37.631Z,1.70
2023-03-27T15:12:52.753Z,1.70
2023-03-27T15:17:54.904Z,1.80
2023-03-27T15:23:17.057Z,2.13
2023-03-27T15:28:32.626Z,1.60
2023-03-27T15:33:41.106Z,1.60
2023-03-27T15:38:42.851Z,1.60
2023-03-27T15:43:44.402Z,1.60
2023-03-27T15:48:50.838Z,2.00
2023-03-27T15:53:55.728Z,1.70
2023-03-27T15:59:00.832Z,1.73
2023-03-27T16:04:08.906Z,1.93
2023-03-27T16:09:23.367Z,1.50
2023-03-27T16:14:28.569Z,1.60
2023-03-27T16:19:41.654Z,2.00
2023-03-27T16:24:43.539Z,1.60
2023-03-27T16:29:48.364Z,1.50
2023-03-27T16:34:53.539Z,1.60
2023-03-27T16:39:55.529Z,2.10
2023-03-27T16:44:57.157Z,1.83
2023-03-27T16:50:10.784Z,1.90
2023-03-27T16:55:13.982Z,1.73
2023-03-27T17:00:15.991Z,1.90
2023-03-27T17:05:17.636Z,1.90
2023-03-27T17:10:19.370Z,2.00
2023-03-27T17:15:20.967Z,1.87
2023-03-27T17:20:22.531Z,2.23
2023-03-27T17:25:24.312Z,2.03
2023-03-27T17:30:38.039Z,2.00
2023-03-27T17:35:41.800Z,1.73
2023-03-27T17:40:43.548Z,2.00
2023-03-27T17:45:45.524Z,1.90
2023-03-27T17:50:54.790Z,1.63
2023-03-27T17:56:03.136Z,2.10
2023-03-27T18:01:16.407Z,2.00
2023-03-27T18:21:10.792Z,1.90
2023-03-27T19:07:28.428Z,3.40
2023-03-27T19:13:34.887Z,2.90
2023-03-27T19:18:55.071Z,2.07
2023-03-27T19:24:23.904Z,1.80
2023-03-27T19:29:26.463Z,2.23
2023-03-27T19:34:39.946Z,2.60
2023-03-27T19:39:44.149Z,3.47
2023-03-27T19:44:45.700Z,3.27
2023-03-27T19:49:47.414Z,2.80
2023-03-27T19:54:49.028Z,2.63
2023-03-27T19:59:50.937Z,2.13
2023-03-27T20:04:52.594Z,2.50
2023-03-27T20:09:54.204Z,2.30
2023-03-27T20:15:07.408Z,2.00
2023-03-27T20:20:16.625Z,2.30
2023-03-27T20:25:18.448Z,2.50
2023-03-27T20:30:20.347Z,2.13
2023-03-27T20:35:24.966Z,2.20
2023-03-27T20:40:27.185Z,2.27
2023-03-27T20:45:30.871Z,2.43
2023-03-27T20:50:35.897Z,2.93
2023-03-27T20:55:46.484Z,2.30
2023-03-27T21:00:56.323Z,2.60
2023-03-27T21:05:58.533Z,3.13
2023-03-27T21:11:03.397Z,2.30
2023-03-27T21:16:05.587Z,2.60
2023-03-27T21:21:08.391Z,2.60
2023-03-27T21:26:12.098Z,2.60
2023-03-27T21:31:13.854Z,2.40
2023-03-27T21:36:15.487Z,2.33
2023-03-27T21:41:17.348Z,2.60
2023-03-27T21:46:19.083Z,2.50
2023-03-27T21:51:20.990Z,2.23
2023-03-27T21:56:22.511Z,2.60
2023-03-27T22:01:24.617Z,3.00
2023-03-27T22:06:26.266Z,2.80
2023-03-27T22:11:28.173Z,3.17
2023-03-27T22:16:30.056Z,3.27
2023-03-27T22:21:31.738Z,3.30
2023-03-27T22:26:36.484Z,3.63
2023-03-27T22:31:38.204Z,3.40
2023-03-27T22:36:39.967Z,3.70
2023-03-27T22:41:41.614Z,3.23
2023-03-27T22:46:44.007Z,2.93
2023-03-27T22:51:45.814Z,3.10
2023-03-27T22:56:47.366Z,3.03
2023-03-27T23:01:49.057Z,3.37
2023-03-27T23:06:51.029Z,3.20
2023-03-27T23:11:52.716Z,2.90
2023-03-27T23:16:54.872Z,2.63
2023-03-27T23:21:56.527Z,2.77
2023-03-27T23:26:58.058Z,3.30
2023-03-27T23:31:59.947Z,3.33
2023-03-27T23:37:01.493Z,2.83
2023-03-27T23:42:03.031Z,3.00
2023-03-27T23:47:04.966Z,2.80
2023-03-27T23:52:19.762Z,2.87
2023-03-27T23:57:21.916Z,3.20
